Time,TemperatureF,DewpointF,PressureIn,WindDirection,WindDirectionDegrees,WindSpeedMPH,WindSpeedGustMPH,Humidity,HourlyPrecipIn,Conditions,Clouds,dailyrainin,SolarRadiationWatts/m^2,SoftwareType,DateUTC
2013-09-16 00:01:00,60.3,57.4,30.12,WSW,240,0.0,2.0,90,0.00,,,0.00,0.0,meteohub,2013-09-16 04:01:00,
2013-09-16 00:02:00,60.3,57.4,30.12,WSW,240,0.0,2.0,90,0.00,,,0.00,0.0,meteohub,2013-09-16 04:02:00,
2013-09-16 00:03:00,60.3,57.4,30.12,WSW,240,0.0,2.0,90,0.00,,,0.00,0.0,meteohub,2013-09-16 04:03:00,
2013-09-16 00:04:00,60.3,57.4,30.12,WSW,240,0.0,2.0,90,0.00,,,0.00,0.0,meteohub,2013-09-16 04:04:00,
2013-09-16 00:09:00,60.3,57.4,30.12,WSW,240,0.0,1.0,90,0.00,,,0.00,0.0,meteohub,2013-09-16 04:09:00,
2013-09-16 00:14:00,60.4,57.7,30.12,SW,233,0.0,2.0,91,0.00,,,0.00,0.0,meteohub,2013-09-16 04:14:00,
2013-09-16 00:19:00,60.6,57.9,30.12,SW,227,0.0,2.0,91,0.00,,,0.00,0.0,meteohub,2013-09-16 04:19:00,
2013-09-16 00:24:00,60.6,57.9,30.12,South,188,0.0,2.0,91,0.00,,,0.00,0.0,meteohub,2013-09-16 04:24:00,
2013-09-16 00:29:00,61.0,58.1,30.12,South,188,0.0,3.0,90,0.00,,,0.00,0.0,meteohub,2013-09-16 04:29:00,
2013-09-16 00:34:00,61.0,58.1,30.12,South,178,0.0,3.0,90,0.00,,,0.00,0.0,meteohub,2013-09-16 04:34:00,
2013-09-16 00:39:00,61.2,58.3,30.12,South,178,0.0,3.0,90,0.00,,,0.00,0.0,meteohub,2013-09-16 04:39:00,
2013-09-16 00:45:00,61.2,58.3,30.12,South,178,0.0,3.0,90,0.00,,,0.00,0.0,meteohub,2013-09-16 04:45:00,
2013-09-16 00:50:00,61.2,58.3,30.12,SW,215,0.0,3.0,90,0.00,,,0.00,0.0,meteohub,2013-09-16 04:50:00,
2013-09-16 00:55:00,61.2,58.3,30.12,SSW,203,0.0,2.0,90,0.00,,,0.00,0.0,meteohub,2013-09-16 04:55:00,
2013-09-16 01:00:00,61.2,58.3,30.12,SSW,203,0.0,2.0,90,0.00,,,0.00,0.0,meteohub,2013-09-16 05:00:00,
2013-09-16 01:05:00,61.2,58.3,30.12,SSW,203,0.0,2.0,90,0.00,,,0.00,0.0,meteohub,2013-09-16 05:05:00,
2013-09-16 01:10:00,61.0,58.3,30.12,SSW,203,0.0,2.0,91,0.00,,,0.00,0.0,meteohub,2013-09-16 05:10:00,
2013-09-16 01:15:00,61.0,58.3,30.12,SSW,203,0.0,1.0,91,0.00,,,0.00,0.0,meteohub,2013-09-16 05:15:00,
2013-09-16 01:20:00,60.8,58.1,30.12,SSW,203,0.0,1.0,91,0.00,,,0.00,0.0,meteohub,2013-09-16 05:20:00,
2013-09-16 01:25:00,60.8,58.1,30.11,SSW,203,0.0,1.0,91,0.00,,,0.00,0.0,meteohub,2013-09-16 05:25:00,
2013-09-16 01:30:00,60.6,57.9,30.11,WSW,238,1.0,3.0,91,0.00,,,0.00,0.0,meteohub,2013-09-16 05:30:00,
2013-09-16 01:35:00,60.8,58.1,30.11,WSW,237,0.0,4.0,91,0.00,,,0.00,0.0,meteohub,2013-09-16 05:35:00,
2013-09-16 01:40:00,60.8,57.9,30.11,WSW,241,0.0,4.0,90,0.00,,,0.00,0.0,meteohub,2013-09-16 05:40:00,
2013-09-16 01:45:00,61.0,58.1,30.11,SW,236,0.0,4.0,90,0.00,,,0.00,0.0,meteohub,2013-09-16 05:45:00,
2013-09-16 01:50:00,61.0,58.1,30.11,SW,236,0.0,2.0,90,0.00,,,0.00,0.0,meteohub,2013-09-16 05:50:00,
2013-09-16 01:55:00,61.0,58.1,30.11,West,269,0.0,2.0,90,0.00,,,0.00,0.0,meteohub,2013-09-16 05:55:00,
2013-09-16 02:01:00,61.0,58.1,30.10,South,186,0.0,2.0,90,0.00,,,0.00,0.0,meteohub,2013-09-16 06:01:00,
2013-09-16 02:06:00,61.0,57.7,30.11,South,179,0.0,4.0,89,0.00,,,0.00,0.0,meteohub,2013-09-16 06:06:00,
2013-09-16 02:11:00,61.0,57.7,30.10,South,169,1.0,4.0,89,0.00,,,0.00,0.0,meteohub,2013-09-16 06:11:00,
2013-09-16 02:16:00,61.0,57.7,30.10,SW,225,0.0,5.0,89,0.00,,,0.00,0.0,meteohub,2013-09-16 06:16:00,
2013-09-16 02:21:00,61.0,57.7,30.10,South,174,2.0,5.0,89,0.00,,,0.00,0.0,meteohub,2013-09-16 06:21:00,
2013-09-16 02:26:00,61.0,57.7,30.11,ENE,61,0.0,5.0,89,0.00,,,0.00,0.0,meteohub,2013-09-16 06:26:00,
2013-09-16 02:31:00,61.0,57.7,30.10,WNW,298,0.0,3.0,89,0.00,,,0.00,0.0,meteohub,2013-09-16 06:31:00,
2013-09-16 02:36:00,61.2,57.9,30.10,South,179,0.0,3.0,89,0.00,,,0.00,0.0,meteohub,2013-09-16 06:36:00,
2013-09-16 02:41:00,61.2,57.6,30.10,South,183,0.0,4.0,88,0.00,,,0.00,0.0,meteohub,2013-09-16 06:41:00,
2013-09-16 02:46:00,61.2,57.6,30.10,South,184,0.0,4.0,88,0.00,,,0.00,0.0,meteohub,2013-09-16 06:46:00,
2013-09-16 02:51:00,61.2,57.6,30.09,South,186,0.0,2.0,88,0.00,,,0.00,0.0,meteohub,2013-09-16 06:51:00,
2013-09-16 02:56:00,61.2,57.6,30.10,South,188,0.0,2.0,88,0.00,,,0.00,0.0,meteohub,2013-09-16 06:56:00,
2013-09-16 03:01:00,61.2,57.6,30.10,South,182,0.0,2.0,88,0.00,,,0.00,0.0,meteohub,2013-09-16 07:01:00,
2013-09-16 03:06:00,61.2,57.6,30.10,SW,234,0.0,2.0,88,0.00,,,0.00,0.0,meteohub,2013-09-16 07:06:00,
2013-09-16 03:12:00,61.2,57.6,30.10,SSW,201,1.0,4.0,88,0.00,,,0.00,0.0,meteohub,2013-09-16 07:12:00,
2013-09-16 03:17:00,61.3,58.1,30.10,South,178,1.0,4.0,89,0.00,,,0.00,0.0,meteohub,2013-09-16 07:17:00,
2013-09-16 03:22:00,61.3,58.1,30.10,West,263,1.0,4.0,89,0.00,,,0.00,0.0,meteohub,2013-09-16 07:22:00,
2013-09-16 03:27:00,61.3,58.1,30.10,West,263,0.0,2.0,89,0.00,,,0.00,0.0,meteohub,2013-09-16 07:27:00,
2013-09-16 03:32:00,61.3,58.1,30.09,WSW,239,1.0,2.0,89,0.00,,,0.00,0.0,meteohub,2013-09-16 07:32:00,
2013-09-16 03:37:00,61.3,58.1,30.09,SSW,207,0.0,2.0,89,0.00,,,0.00,0.0,meteohub,2013-09-16 07:37:00,
2013-09-16 03:42:00,61.3,58.5,30.09,South,178,0.0,2.0,90,0.00,,,0.00,0.0,meteohub,2013-09-16 07:42:00,
2013-09-16 03:47:00,61.3,58.5,30.09,SW,225,0.0,3.0,90,0.00,,,0.00,0.0,meteohub,2013-09-16 07:47:00,
2013-09-16 03:52:00,61.3,58.5,30.09,WSW,244,1.0,3.0,90,0.00,,,0.00,0.0,meteohub,2013-09-16 07:52:00,
2013-09-16 03:57:00,61.3,58.5,30.09,WSW,244,0.0,2.0,90,0.00,,,0.00,0.0,meteohub,2013-09-16 07:57:00,
2013-09-16 04:02:00,61.2,58.3,30.09,WSW,244,0.0,2.0,90,0.00,,,0.00,0.0,meteohub,2013-09-16 08:02:00,
2013-09-16 04:07:00,61.2,58.3,30.09,WSW,244,0.0,2.0,90,0.00,,,0.00,0.0,meteohub,2013-09-16 08:07:00,
2013-09-16 04:12:00,61.0,58.3,30.09,WSW,244,0.0,1.0,91,0.00,,,0.00,0.0,meteohub,2013-09-16 08:12:00,
2013-09-16 04:17:00,61.0,58.3,30.09,WSW,244,0.0,1.0,91,0.00,,,0.00,0.0,meteohub,2013-09-16 08:17:00,
2013-09-16 04:22:00,60.6,57.9,30.09,WSW,244,0.0,1.0,91,0.00,,,0.00,0.0,meteohub,2013-09-16 08:22:00,
2013-09-16 04:27:00,60.6,58.3,30.09,NW,321,0.0,1.0,92,0.00,,,0.00,0.0,meteohub,2013-09-16 08:27:00,
2013-09-16 04:32:00,60.4,58.1,30.09,West,267,0.0,3.0,92,0.00,,,0.00,0.0,meteohub,2013-09-16 08:32:00,
2013-09-16 04:37:00,60.4,58.1,30.09,West,267,0.0,3.0,92,0.00,,,0.00,0.0,meteohub,2013-09-16 08:37:00,
2013-09-16 04:42:00,60.4,58.5,30.09,SW,235,0.0,2.0,93,0.00,,,0.00,0.0,meteohub,2013-09-16 08:42:00,
2013-09-16 04:47:00,60.4,58.5,30.09,SW,235,0.0,2.0,93,0.00,,,0.00,0.0,meteohub,2013-09-16 08:47:00,
2013-09-16 04:52:00,60.3,58.3,30.09,SW,235,0.0,1.0,93,0.00,,,0.00,0.0,meteohub,2013-09-16 08:52:00,
2013-09-16 04:57:00,60.3,58.3,30.09,SW,235,0.0,1.0,93,0.00,,,0.00,0.0,meteohub,2013-09-16 08:57:00,
2013-09-16 05:02:00,60.4,58.5,30.09,SW,235,0.0,1.0,93,0.00,,,0.00,0.0,meteohub,2013-09-16 09:02:00,
2013-09-16 05:07:00,60.4,58.6,30.09,SW,227,1.0,2.0,94,0.00,,,0.00,0.0,meteohub,2013-09-16 09:07:00,
2013-09-16 05:12:00,60.4,58.6,30.09,West,267,0.0,2.0,94,0.00,,,0.00,0.0,meteohub,2013-09-16 09:12:00,
2013-09-16 05:17:00,60.4,58.6,30.09,WSW,239,0.0,2.0,94,0.00,,,0.00,0.0,meteohub,2013-09-16 09:17:00,
2013-09-16 05:22:00,60.4,58.6,30.08,South,191,0.0,2.0,94,0.00,,,0.00,0.0,meteohub,2013-09-16 09:22:00,
2013-09-16 05:27:00,60.4,58.6,30.08,South,186,0.0,4.0,94,0.00,,,0.00,0.0,meteohub,2013-09-16 09:27:00,
2013-09-16 05:32:00,60.4,58.6,30.08,South,186,0.0,4.0,94,0.00,,,0.00,0.0,meteohub,2013-09-16 09:32:00,
2013-09-16 05:37:00,60.4,58.6,30.08,South,186,0.0,4.0,94,0.00,,,0.00,0.0,meteohub,2013-09-16 09:37:00,
2013-09-16 05:42:00,60.4,58.6,30.08,WSW,257,0.0,2.0,94,0.00,,,0.00,0.0,meteohub,2013-09-16 09:42:00,
2013-09-16 05:47:00,60.4,58.6,30.08,WSW,257,0.0,2.0,94,0.00,,,0.00,0.0,meteohub,2013-09-16 09:47:00,
2013-09-16 05:52:00,60.4,58.6,30.08,WSW,257,0.0,2.0,94,0.00,,,0.00,0.0,meteohub,2013-09-16 09:52:00,
2013-09-16 05:58:00,60.4,58.6,30.08,SW,230,0.0,2.0,94,0.00,,,0.00,0.0,meteohub,2013-09-16 09:58:00,
2013-09-16 06:03:00,60.4,58.6,30.08,SW,230,0.0,2.0,94,0.00,,,0.00,0.0,meteohub,2013-09-16 10:03:00,
2013-09-16 06:08:00,60.4,58.6,30.08,SW,230,0.0,2.0,94,0.00,,,0.00,0.0,meteohub,2013-09-16 10:08:00,
2013-09-16 06:13:00,60.4,58.6,30.08,SW,230,0.0,1.0,94,0.00,,,0.00,0.0,meteohub,2013-09-16 10:13:00,
2013-09-16 06:18:00,60.4,58.6,30.09,SW,230,0.0,1.0,94,0.00,,,0.00,0.0,meteohub,2013-09-16 10:18:00,
2013-09-16 06:23:00,60.4,58.6,30.09,SW,230,0.0,1.0,94,0.00,,,0.00,0.0,meteohub,2013-09-16 10:23:00,
2013-09-16 06:28:00,60.4,58.6,30.09,SW,230,0.0,1.0,94,0.00,,,0.00,0.0,meteohub,2013-09-16 10:28:00,
2013-09-16 06:34:00,60.4,58.6,30.09,SW,230,0.0,1.0,94,0.00,,,0.00,0.0,meteohub,2013-09-16 10:34:00,
2013-09-16 06:39:00,60.4,58.6,30.09,SW,230,0.0,0.0,94,0.00,,,0.00,0.0,meteohub,2013-09-16 10:39:00,
2013-09-16 06:44:00,60.3,58.5,30.09,SW,230,0.0,0.0,94,0.00,,,0.00,7.0,meteohub,2013-09-16 10:44:00,
2013-09-16 06:49:00,60.3,58.5,30.09,SW,230,0.0,0.0,94,0.00,,,0.00,11.0,meteohub,2013-09-16 10:49:00,
2013-09-16 06:54:00,60.3,58.5,30.09,SW,230,0.0,0.0,94,0.00,,,0.00,12.0,meteohub,2013-09-16 10:54:00,
2013-09-16 06:59:00,60.3,58.8,30.09,SW,230,0.0,0.0,95,0.00,,,0.00,12.0,meteohub,2013-09-16 10:59:00,
2013-09-16 07:04:00,60.3,58.8,30.09,SW,230,0.0,0.0,95,0.00,,,0.00,9.0,meteohub,2013-09-16 11:04:00,
2013-09-16 07:10:00,60.3,58.8,30.09,SW,230,0.0,0.0,95,0.00,,,0.00,9.0,meteohub,2013-09-16 11:10:00,
2013-09-16 07:15:00,60.3,58.8,30.09,SW,230,0.0,0.0,95,0.00,,,0.00,14.0,meteohub,2013-09-16 11:15:00,
2013-09-16 07:20:00,60.4,59.0,30.09,SW,230,0.0,0.0,95,0.00,,,0.00,21.0,meteohub,2013-09-16 11:20:00,
2013-09-16 07:25:00,60.6,59.2,30.09,SW,230,0.0,0.0,95,0.00,,,0.00,30.0,meteohub,2013-09-16 11:25:00,
2013-09-16 07:30:00,61.0,59.5,30.09,SW,230,0.0,1.0,95,0.00,,,0.00,25.0,meteohub,2013-09-16 11:30:00,
2013-09-16 07:35:00,61.0,59.5,30.09,SW,230,0.0,1.0,95,0.00,,,0.00,23.0,meteohub,2013-09-16 11:35:00,
2013-09-16 07:40:00,61.2,59.7,30.09,SW,230,0.0,1.0,95,0.00,,,0.00,25.0,meteohub,2013-09-16 11:40:00,
2013-09-16 07:45:00,61.3,59.9,30.09,SW,230,0.0,1.0,95,0.00,,,0.00,14.0,meteohub,2013-09-16 11:45:00,
2013-09-16 07:50:00,61.5,60.1,30.09,SW,230,0.0,1.0,95,0.00,,,0.00,14.0,meteohub,2013-09-16 11:50:00,
2013-09-16 07:56:00,61.5,60.1,30.09,SW,230,0.0,1.0,95,0.00,,,0.00,28.0,meteohub,2013-09-16 11:56:00,
2013-09-16 08:01:00,61.9,60.4,30.09,SW,230,0.0,1.0,95,0.00,,,0.00,16.0,meteohub,2013-09-16 12:01:00,
2013-09-16 08:06:00,61.9,60.1,30.09,SW,230,0.0,1.0,94,0.00,,,0.00,18.0,meteohub,2013-09-16 12:06:00,
2013-09-16 08:11:00,62.1,60.3,30.09,SW,230,0.0,1.0,94,0.00,,,0.00,23.0,meteohub,2013-09-16 12:11:00,
2013-09-16 08:16:00,62.1,60.3,30.09,SW,230,0.0,1.0,94,0.00,,,0.00,49.0,meteohub,2013-09-16 12:16:00,
2013-09-16 08:21:00,62.2,60.4,30.09,SW,230,0.0,1.0,94,0.00,,,0.00,81.0,meteohub,2013-09-16 12:21:00,
2013-09-16 08:26:00,62.2,60.4,30.09,SW,230,0.0,1.0,94,0.00,,,0.00,56.0,meteohub,2013-09-16 12:26:00,
2013-09-16 08:31:00,62.2,60.3,30.09,SW,230,0.0,0.0,93,0.00,,,0.00,86.0,meteohub,2013-09-16 12:31:00,
2013-09-16 08:36:00,62.4,60.4,30.08,SW,230,0.0,1.0,93,0.00,,,0.00,86.0,meteohub,2013-09-16 12:36:00,
2013-09-16 08:41:00,62.8,60.8,30.08,SW,230,0.0,1.0,93,0.00,,,0.00,81.0,meteohub,2013-09-16 12:41:00,
2013-09-16 08:47:00,63.0,61.0,30.08,SW,230,1.0,1.0,93,0.00,,,0.00,84.0,meteohub,2013-09-16 12:47:00,
2013-09-16 08:52:00,63.0,61.0,30.09,SW,230,0.0,1.0,93,0.00,,,0.00,90.0,meteohub,2013-09-16 12:52:00,
2013-09-16 08:57:00,63.1,60.8,30.09,SW,232,0.0,2.0,92,0.00,,,0.00,109.0,meteohub,2013-09-16 12:57:00,
2013-09-16 09:02:00,63.3,60.6,30.09,WSW,244,0.0,2.0,91,0.00,,,0.00,88.0,meteohub,2013-09-16 13:02:00,
2013-09-16 09:07:00,63.5,60.8,30.09,WSW,246,0.0,2.0,91,0.00,,,0.00,81.0,meteohub,2013-09-16 13:07:00,
2013-09-16 09:12:00,63.5,60.8,30.09,WSW,246,0.0,3.0,91,0.00,,,0.00,95.0,meteohub,2013-09-16 13:12:00,
2013-09-16 09:17:00,63.7,60.6,30.09,West,270,0.0,3.0,90,0.00,,,0.00,100.0,meteohub,2013-09-16 13:17:00,
2013-09-16 09:22:00,63.7,60.6,30.09,WSW,243,0.0,3.0,90,0.00,,,0.00,113.0,meteohub,2013-09-16 13:22:00,
2013-09-16 09:27:00,63.7,60.6,30.09,WNW,288,0.0,3.0,90,0.00,,,0.00,120.0,meteohub,2013-09-16 13:27:00,
2013-09-16 09:32:00,63.9,60.6,30.09,SSW,196,0.0,3.0,89,0.00,,,0.00,105.0,meteohub,2013-09-16 13:32:00,
2013-09-16 09:37:00,63.9,60.6,30.09,WSW,258,1.0,5.0,89,0.00,,,0.00,151.0,meteohub,2013-09-16 13:37:00,
2013-09-16 09:42:00,64.0,60.8,30.09,West,261,2.0,5.0,89,0.00,,,0.00,130.0,meteohub,2013-09-16 13:42:00,
2013-09-16 09:47:00,64.0,60.8,30.09,WNW,298,0.0,5.0,89,0.00,,,0.00,95.0,meteohub,2013-09-16 13:47:00,
2013-09-16 09:52:00,64.0,60.4,30.09,West,265,0.0,3.0,88,0.00,,,0.00,127.0,meteohub,2013-09-16 13:52:00,
2013-09-16 09:57:00,64.0,60.4,30.09,SW,230,1.0,5.0,88,0.00,,,0.00,160.0,meteohub,2013-09-16 13:57:00,
2013-09-16 10:02:00,64.2,61.0,30.09,SW,232,0.0,5.0,89,0.00,,,0.00,172.0,meteohub,2013-09-16 14:02:00,
2013-09-16 10:07:00,64.4,61.2,30.09,WSW,242,0.0,3.0,89,0.00,,,0.00,223.0,meteohub,2013-09-16 14:07:00,
2013-09-16 10:12:00,64.6,61.3,30.09,WNW,293,2.0,2.0,89,0.00,,,0.00,83.0,meteohub,2013-09-16 14:12:00,
2013-09-16 10:17:00,64.6,61.0,30.10,West,273,0.0,3.0,88,0.00,,,0.00,39.0,meteohub,2013-09-16 14:17:00,
2013-09-16 10:22:00,64.2,59.9,30.11,NE,50,0.0,9.0,86,0.00,,,0.00,42.0,meteohub,2013-09-16 14:22:00,
2013-09-16 10:27:00,63.9,59.2,30.11,North,5,10.0,10.0,85,0.00,,,0.00,30.0,meteohub,2013-09-16 14:27:00,
2013-09-16 10:32:00,63.1,58.6,30.11,NNW,342,4.0,10.0,85,0.00,,,0.00,40.0,meteohub,2013-09-16 14:32:00,
2013-09-16 10:37:00,63.0,57.7,30.11,North,9,6.0,11.0,83,0.00,,,0.00,60.0,meteohub,2013-09-16 14:37:00,
2013-09-16 10:42:00,62.8,57.2,30.11,North,5,7.0,11.0,82,0.00,,,0.00,95.0,meteohub,2013-09-16 14:42:00,
2013-09-16 10:47:00,62.6,56.7,30.11,NNE,31,3.0,11.0,81,0.00,,,0.00,160.0,meteohub,2013-09-16 14:47:00,
2013-09-16 10:52:00,62.8,56.8,30.11,NNE,13,4.0,10.0,81,0.00,,,0.00,123.0,meteohub,2013-09-16 14:52:00,
2013-09-16 10:57:00,62.8,56.5,30.11,NNW,329,3.0,10.0,80,0.00,,,0.00,107.0,meteohub,2013-09-16 14:57:00,
2013-09-16 11:02:00,63.0,56.3,30.11,NNE,14,6.0,10.0,79,0.00,,,0.00,120.0,meteohub,2013-09-16 15:02:00,
2013-09-16 11:07:00,63.0,56.3,30.12,NNE,32,3.0,10.0,79,0.00,,,0.00,114.0,meteohub,2013-09-16 15:07:00,
2013-09-16 11:12:00,63.1,56.1,30.11,NNE,25,1.0,10.0,78,0.00,,,0.00,118.0,meteohub,2013-09-16 15:12:00,
2013-09-16 11:17:00,63.1,56.1,30.11,NNE,31,7.0,9.0,78,0.00,,,0.00,176.0,meteohub,2013-09-16 15:17:00,
2013-09-16 11:22:00,63.5,56.8,30.10,NNW,330,2.0,12.0,79,0.00,,,0.00,179.0,meteohub,2013-09-16 15:22:00,
2013-09-16 11:27:00,63.5,56.8,30.11,NE,36,6.0,12.0,79,0.00,,,0.00,167.0,meteohub,2013-09-16 15:27:00,
2013-09-16 11:32:00,63.1,56.1,30.11,NNE,18,4.0,12.0,78,0.00,,,0.00,155.0,meteohub,2013-09-16 15:32:00,
2013-09-16 11:37:00,63.0,56.3,30.11,NNW,347,5.0,13.0,79,0.00,,,0.00,135.0,meteohub,2013-09-16 15:37:00,
2013-09-16 11:42:00,62.6,55.9,30.11,WNW,296,4.0,13.0,79,0.00,,,0.00,146.0,meteohub,2013-09-16 15:42:00,
2013-09-16 11:47:00,62.2,55.9,30.10,North,5,2.0,13.0,80,0.01,,,0.01,163.0,meteohub,2013-09-16 15:47:00,
2013-09-16 11:52:00,62.2,56.3,30.11,North,0,3.0,11.0,81,0.01,,,0.01,186.0,meteohub,2013-09-16 15:52:00,
2013-09-16 11:57:00,62.2,56.3,30.11,North,10,5.0,9.0,81,0.01,,,0.01,167.0,meteohub,2013-09-16 15:57:00,
2013-09-16 12:02:00,62.4,56.1,30.10,NNE,23,7.0,9.0,80,0.01,,,0.01,156.0,meteohub,2013-09-16 16:02:00,
2013-09-16 12:07:00,62.4,55.8,30.10,NNW,348,1.0,9.0,79,0.01,,,0.01,160.0,meteohub,2013-09-16 16:07:00,
2013-09-16 12:12:00,62.4,55.8,30.10,North,355,3.0,9.0,79,0.01,,,0.01,165.0,meteohub,2013-09-16 16:12:00,
2013-09-16 12:17:00,62.4,55.4,30.10,North,355,5.0,11.0,78,0.01,,,0.01,193.0,meteohub,2013-09-16 16:17:00,
2013-09-16 12:22:00,62.6,55.9,30.10,North,350,2.0,11.0,79,0.01,,,0.01,204.0,meteohub,2013-09-16 16:22:00,
2013-09-16 12:27:00,62.8,55.8,30.10,NNE,23,1.0,11.0,78,0.01,,,0.01,262.0,meteohub,2013-09-16 16:27:00,
2013-09-16 12:32:00,63.1,56.5,30.10,North,9,6.0,7.0,79,0.01,,,0.01,281.0,meteohub,2013-09-16 16:32:00,
2013-09-16 12:37:00,63.1,55.8,30.10,NNE,26,2.0,7.0,77,0.01,,,0.01,204.0,meteohub,2013-09-16 16:37:00,
2013-09-16 12:42:00,63.3,56.3,30.10,ENE,61,3.0,8.0,78,0.01,,,0.01,204.0,meteohub,2013-09-16 16:42:00,
2013-09-16 12:47:00,63.1,56.1,30.10,North,5,3.0,8.0,78,0.00,,,0.01,144.0,meteohub,2013-09-16 16:47:00,
2013-09-16 12:52:00,63.1,56.1,30.10,NNE,22,3.0,8.0,78,0.00,,,0.01,134.0,meteohub,2013-09-16 16:52:00,
2013-09-16 12:57:00,63.1,56.8,30.10,NNE,15,3.0,9.0,80,0.00,,,0.01,169.0,meteohub,2013-09-16 16:57:00,
2013-09-16 13:02:00,63.1,57.2,30.09,NE,49,6.0,9.0,81,0.00,,,0.01,230.0,meteohub,2013-09-16 17:02:00,
2013-09-16 13:07:00,63.3,57.0,30.09,NE,44,5.0,9.0,80,0.00,,,0.01,239.0,meteohub,2013-09-16 17:07:00,
2013-09-16 13:12:00,63.3,55.9,30.09,North,355,4.0,8.0,77,0.00,,,0.01,193.0,meteohub,2013-09-16 17:12:00,
2013-09-16 13:17:00,63.5,56.1,30.09,NNE,29,3.0,8.0,77,0.00,,,0.01,204.0,meteohub,2013-09-16 17:17:00,
2013-09-16 13:22:00,63.7,56.3,30.09,NNE,22,1.0,7.0,77,0.00,,,0.01,253.0,meteohub,2013-09-16 17:22:00,
2013-09-16 13:27:00,63.9,56.5,30.09,NNW,340,4.0,7.0,77,0.00,,,0.01,264.0,meteohub,2013-09-16 17:27:00,
2013-09-16 13:32:00,64.0,56.3,30.09,NNE,24,0.0,8.0,76,0.00,,,0.01,322.0,meteohub,2013-09-16 17:32:00,
2013-09-16 13:37:00,64.2,55.8,30.09,NNW,348,3.0,8.0,74,0.00,,,0.01,306.0,meteohub,2013-09-16 17:37:00,
2013-09-16 13:42:00,64.4,55.6,30.09,WNW,298,2.0,8.0,73,0.00,,,0.01,336.0,meteohub,2013-09-16 17:42:00,
2013-09-16 13:47:00,64.8,55.9,30.09,ENE,69,2.0,6.0,73,0.00,,,0.01,425.0,meteohub,2013-09-16 17:47:00,
2013-09-16 13:52:00,65.1,55.4,30.09,NE,34,4.0,6.0,71,0.00,,,0.01,392.0,meteohub,2013-09-16 17:52:00,
2013-09-16 13:57:00,65.5,56.3,30.09,WNW,282,1.0,7.0,72,0.00,,,0.01,323.0,meteohub,2013-09-16 17:57:00,
2013-09-16 14:02:00,65.7,55.9,30.09,NNW,347,2.0,7.0,71,0.00,,,0.01,272.0,meteohub,2013-09-16 18:02:00,
2013-09-16 14:07:00,65.8,55.8,30.09,ENE,63,1.0,7.0,70,0.00,,,0.01,364.0,meteohub,2013-09-16 18:07:00,
2013-09-16 14:12:00,66.0,55.2,30.09,NE,50,3.0,7.0,68,0.00,,,0.01,482.0,meteohub,2013-09-16 18:12:00,
2013-09-16 14:17:00,66.4,54.3,30.08,North,5,3.0,6.0,65,0.00,,,0.01,573.0,meteohub,2013-09-16 18:17:00,
2013-09-16 14:22:00,66.2,54.1,30.08,NNE,22,2.0,7.0,65,0.00,,,0.01,403.0,meteohub,2013-09-16 18:22:00,
2013-09-16 14:27:00,66.6,54.0,30.08,NNW,344,0.0,7.0,64,0.00,,,0.01,779.0,meteohub,2013-09-16 18:27:00,
2013-09-16 14:32:00,67.1,53.6,30.09,West,274,0.0,7.0,62,0.00,,,0.01,780.0,meteohub,2013-09-16 18:32:00,
2013-09-16 14:37:00,67.5,54.9,30.09,NE,39,2.0,9.0,64,0.00,,,0.01,733.0,meteohub,2013-09-16 18:37:00,
2013-09-16 14:42:00,67.8,55.6,30.09,NNE,24,1.0,9.0,65,0.00,,,0.01,719.0,meteohub,2013-09-16 18:42:00,
2013-09-16 14:47:00,67.6,55.0,30.09,NNW,338,4.0,7.0,64,0.00,,,0.01,724.0,meteohub,2013-09-16 18:47:00,
2013-09-16 14:52:00,67.3,55.6,30.09,SW,236,2.0,12.0,66,0.00,,,0.01,714.0,meteohub,2013-09-16 18:52:00,
2013-09-16 14:57:00,67.5,56.1,30.09,North,5,1.0,12.0,67,0.00,,,0.01,599.0,meteohub,2013-09-16 18:57:00,
2013-09-16 15:02:00,67.6,56.3,30.09,NW,311,0.0,9.0,67,0.00,,,0.01,656.0,meteohub,2013-09-16 19:02:00,
2013-09-16 15:07:00,67.5,56.1,30.09,NNE,12,0.0,10.0,67,0.00,,,0.01,598.0,meteohub,2013-09-16 19:07:00,
2013-09-16 15:12:00,67.3,56.3,30.08,NNW,347,3.0,10.0,68,0.00,,,0.01,598.0,meteohub,2013-09-16 19:12:00,
2013-09-16 15:17:00,66.9,55.9,30.09,North,9,7.0,10.0,68,0.00,,,0.01,686.0,meteohub,2013-09-16 19:17:00,
2013-09-16 15:22:00,66.7,55.8,30.09,NNE,33,1.0,9.0,68,0.00,,,0.01,640.0,meteohub,2013-09-16 19:22:00,
2013-09-16 15:27:00,66.7,55.8,30.08,NNE,13,4.0,9.0,68,0.00,,,0.01,615.0,meteohub,2013-09-16 19:27:00,
2013-09-16 15:32:00,66.7,56.7,30.08,NNW,340,3.0,9.0,70,0.00,,,0.01,601.0,meteohub,2013-09-16 19:32:00,
2013-09-16 15:37:00,67.1,56.7,30.08,NNE,16,3.0,8.0,69,0.00,,,0.01,610.0,meteohub,2013-09-16 19:37:00,
2013-09-16 15:42:00,67.5,56.1,30.08,NE,34,5.0,8.0,67,0.00,,,0.01,592.0,meteohub,2013-09-16 19:42:00,
2013-09-16 15:47:00,67.1,55.8,30.08,North,5,6.0,8.0,67,0.00,,,0.01,538.0,meteohub,2013-09-16 19:47:00,
2013-09-16 15:52:00,66.9,55.6,30.08,East,79,1.0,7.0,67,0.00,,,0.01,450.0,meteohub,2013-09-16 19:52:00,
2013-09-16 15:57:00,67.3,56.8,30.08,North,0,4.0,7.0,69,0.00,,,0.01,589.0,meteohub,2013-09-16 19:57:00,
2013-09-16 16:02:00,67.6,56.7,30.08,NNW,346,6.0,6.0,68,0.00,,,0.01,541.0,meteohub,2013-09-16 20:02:00,
2013-09-16 16:07:00,67.5,56.1,30.08,NNW,338,0.0,7.0,67,0.00,,,0.01,508.0,meteohub,2013-09-16 20:07:00,
2013-09-16 16:12:00,67.6,56.7,30.08,NNE,19,2.0,7.0,68,0.00,,,0.01,443.0,meteohub,2013-09-16 20:12:00,
2013-09-16 16:17:00,67.6,56.3,30.08,North,349,1.0,7.0,67,0.00,,,0.01,450.0,meteohub,2013-09-16 20:17:00,
2013-09-16 16:22:00,68.0,56.7,30.08,North,5,4.0,5.0,67,0.00,,,0.01,445.0,meteohub,2013-09-16 20:22:00,
2013-09-16 16:27:00,67.6,56.7,30.08,NNE,17,1.0,5.0,68,0.00,,,0.01,197.0,meteohub,2013-09-16 20:27:00,
2013-09-16 16:32:00,67.5,56.5,30.08,North,355,2.0,7.0,68,0.00,,,0.01,165.0,meteohub,2013-09-16 20:32:00,
2013-09-16 16:37:00,67.3,56.3,30.08,North,5,1.0,7.0,68,0.00,,,0.01,149.0,meteohub,2013-09-16 20:37:00,
2013-09-16 16:42:00,66.9,56.8,30.08,NNW,344,1.0,7.0,70,0.00,,,0.01,120.0,meteohub,2013-09-16 20:42:00,
2013-09-16 16:47:00,67.1,57.0,30.08,NE,44,2.0,4.0,70,0.00,,,0.01,190.0,meteohub,2013-09-16 20:47:00,
2013-09-16 16:52:00,66.9,56.8,30.08,NNE,13,0.0,4.0,70,0.00,,,0.01,95.0,meteohub,2013-09-16 20:52:00,
2013-09-16 16:57:00,66.9,56.8,30.08,NW,316,1.0,4.0,70,0.00,,,0.01,107.0,meteohub,2013-09-16 20:57:00,
2013-09-16 17:02:00,66.7,56.7,30.09,NNW,344,0.0,4.0,70,0.00,,,0.01,104.0,meteohub,2013-09-16 21:02:00,
2013-09-16 17:07:00,66.6,56.5,30.09,NW,304,0.0,4.0,70,0.00,,,0.01,105.0,meteohub,2013-09-16 21:07:00,
2013-09-16 17:12:00,66.7,56.3,30.09,North,5,0.0,5.0,69,0.00,,,0.01,139.0,meteohub,2013-09-16 21:12:00,
2013-09-16 17:17:00,66.9,56.8,30.09,NW,305,3.0,5.0,70,0.00,,,0.01,118.0,meteohub,2013-09-16 21:17:00,
2013-09-16 17:22:00,67.3,56.8,30.09,North,9,5.0,5.0,69,0.00,,,0.01,70.0,meteohub,2013-09-16 21:22:00,
2013-09-16 17:27:00,67.3,57.2,30.09,NNE,25,2.0,6.0,70,0.00,,,0.01,62.0,meteohub,2013-09-16 21:27:00,
2013-09-16 17:32:00,67.1,57.0,30.09,North,5,1.0,6.0,70,0.00,,,0.01,44.0,meteohub,2013-09-16 21:32:00,
2013-09-16 17:37:00,66.7,56.7,30.09,NNE,22,0.0,6.0,70,0.00,,,0.01,46.0,meteohub,2013-09-16 21:37:00,
2013-09-16 17:42:00,66.6,57.6,30.09,North,355,1.0,4.0,73,0.00,,,0.01,95.0,meteohub,2013-09-16 21:42:00,
2013-09-16 17:47:00,66.0,57.6,30.09,North,355,0.0,4.0,74,0.00,,,0.01,90.0,meteohub,2013-09-16 21:47:00,
2013-09-16 17:52:00,66.0,57.2,30.09,North,355,0.0,4.0,73,0.00,,,0.01,56.0,meteohub,2013-09-16 21:52:00,
2013-09-16 17:57:00,65.8,57.0,30.09,NW,321,0.0,2.0,73,0.00,,,0.01,39.0,meteohub,2013-09-16 21:57:00,
2013-09-16 18:02:00,66.0,57.2,30.09,NW,321,0.0,2.0,73,0.00,,,0.01,26.0,meteohub,2013-09-16 22:02:00,
2013-09-16 18:07:00,66.0,57.6,30.10,WNW,300,0.0,1.0,74,0.00,,,0.01,21.0,meteohub,2013-09-16 22:07:00,
2013-09-16 18:12:00,65.8,58.1,30.10,WNW,300,0.0,2.0,76,0.00,,,0.01,19.0,meteohub,2013-09-16 22:12:00,
2013-09-16 18:18:00,65.8,57.4,30.10,WNW,300,0.0,2.0,74,0.00,,,0.01,26.0,meteohub,2013-09-16 22:18:00,
2013-09-16 18:23:00,65.8,57.0,30.10,NNE,13,2.0,5.0,73,0.00,,,0.01,28.0,meteohub,2013-09-16 22:23:00,
2013-09-16 18:28:00,66.4,54.7,30.10,NNW,346,3.0,8.0,66,0.00,,,0.01,26.0,meteohub,2013-09-16 22:28:00,
2013-09-16 18:33:00,66.9,55.2,30.10,NNW,340,2.0,9.0,66,0.00,,,0.01,16.0,meteohub,2013-09-16 22:33:00,
2013-09-16 18:38:00,66.9,55.6,30.11,NNE,26,4.0,11.0,67,0.00,,,0.01,11.0,meteohub,2013-09-16 22:38:00,
2013-09-16 18:43:00,66.7,55.0,30.11,North,0,3.0,11.0,66,0.00,,,0.01,7.0,meteohub,2013-09-16 22:43:00,
2013-09-16 18:48:00,66.7,55.8,30.11,NNE,32,2.0,13.0,68,0.00,,,0.01,5.0,meteohub,2013-09-16 22:48:00,
2013-09-16 18:53:00,66.6,55.6,30.11,North,351,1.0,13.0,68,0.00,,,0.01,0.0,meteohub,2013-09-16 22:53:00,
2013-09-16 18:58:00,66.6,55.6,30.11,North,5,6.0,13.0,68,0.00,,,0.01,0.0,meteohub,2013-09-16 22:58:00,
2013-09-16 19:03:00,66.6,55.6,30.11,NNE,22,7.0,11.0,68,0.00,,,0.01,0.0,meteohub,2013-09-16 23:03:00,
2013-09-16 19:09:00,66.4,55.0,30.11,North,9,6.0,11.0,67,0.00,,,0.01,0.0,meteohub,2013-09-16 23:09:00,
2013-09-16 19:14:00,66.2,55.4,30.12,NW,326,4.0,11.0,68,0.00,,,0.01,0.0,meteohub,2013-09-16 23:14:00,
2013-09-16 19:19:00,66.2,55.4,30.12,NNW,348,6.0,10.0,68,0.00,,,0.01,0.0,meteohub,2013-09-16 23:19:00,
2013-09-16 19:24:00,66.2,55.4,30.12,North,5,2.0,10.0,68,0.00,,,0.01,0.0,meteohub,2013-09-16 23:24:00,
2013-09-16 19:29:00,66.2,55.4,30.12,North,349,7.0,10.0,68,0.00,,,0.01,0.0,meteohub,2013-09-16 23:29:00,
2013-09-16 19:34:00,66.2,55.8,30.12,NNW,343,4.0,10.0,69,0.00,,,0.01,0.0,meteohub,2013-09-16 23:34:00,
2013-09-16 19:39:00,66.0,55.6,30.12,NNE,28,5.0,10.0,69,0.00,,,0.01,0.0,meteohub,2013-09-16 23:39:00,
2013-09-16 19:44:00,65.8,55.8,30.13,NNW,347,1.0,10.0,70,0.00,,,0.01,0.0,meteohub,2013-09-16 23:44:00,
2013-09-16 19:49:00,65.8,55.4,30.13,East,84,1.0,8.0,69,0.00,,,0.01,0.0,meteohub,2013-09-16 23:49:00,
2013-09-16 19:54:00,65.7,55.6,30.13,North,5,3.0,10.0,70,0.00,,,0.01,0.0,meteohub,2013-09-16 23:54:00,
2013-09-16 20:00:00,65.7,55.2,30.13,North,5,2.0,10.0,69,0.00,,,0.01,0.0,meteohub,2013-09-17 00:00:00,
2013-09-16 20:05:00,65.7,55.6,30.14,NNE,15,5.0,12.0,70,0.00,,,0.01,0.0,meteohub,2013-09-17 00:05:00,
2013-09-16 20:10:00,65.7,55.2,30.14,North,355,2.0,12.0,69,0.00,,,0.01,0.0,meteohub,2013-09-17 00:10:00,
2013-09-16 20:15:00,65.8,55.4,30.14,NNW,343,8.0,11.0,69,0.00,,,0.01,0.0,meteohub,2013-09-17 00:15:00,
2013-09-16 20:20:00,65.8,55.0,30.14,NNW,332,4.0,13.0,68,0.00,,,0.01,0.0,meteohub,2013-09-17 00:20:00,
2013-09-16 20:25:00,65.8,55.0,30.14,NNE,32,2.0,13.0,68,0.00,,,0.01,0.0,meteohub,2013-09-17 00:25:00,
2013-09-16 20:30:00,65.8,55.4,30.15,North,0,3.0,15.0,69,0.00,,,0.01,0.0,meteohub,2013-09-17 00:30:00,
2013-09-16 20:35:00,65.8,55.4,30.15,NE,49,7.0,16.0,69,0.00,,,0.01,0.0,meteohub,2013-09-17 00:35:00,
2013-09-16 20:40:00,65.7,54.3,30.15,North,0,3.0,16.0,67,0.00,,,0.01,0.0,meteohub,2013-09-17 00:40:00,
2013-09-16 20:45:00,65.7,55.2,30.15,NE,34,6.0,16.0,69,0.00,,,0.01,0.0,meteohub,2013-09-17 00:45:00,
2013-09-16 20:50:00,65.5,55.4,30.16,NNE,19,2.0,13.0,70,0.00,,,0.01,0.0,meteohub,2013-09-17 00:50:00,
2013-09-16 20:56:00,65.1,54.7,30.16,North,5,4.0,13.0,69,0.00,,,0.01,0.0,meteohub,2013-09-17 00:56:00,
2013-09-16 21:01:00,64.9,55.4,30.17,North,355,10.0,17.0,71,0.00,,,0.01,0.0,meteohub,2013-09-17 01:01:00,
2013-09-16 21:06:00,64.8,55.2,30.17,NNW,342,7.0,17.0,71,0.00,,,0.01,0.0,meteohub,2013-09-17 01:06:00,
2013-09-16 21:11:00,64.6,55.4,30.17,NNE,30,9.0,17.0,72,0.00,,,0.01,0.0,meteohub,2013-09-17 01:11:00,
2013-09-16 21:16:00,64.6,55.4,30.17,North,0,7.0,19.0,72,0.00,,,0.01,0.0,meteohub,2013-09-17 01:16:00,
2013-09-16 21:21:00,64.4,55.2,30.17,NE,52,4.0,19.0,72,0.00,,,0.01,0.0,meteohub,2013-09-17 01:21:00,
2013-09-16 21:26:00,64.2,55.4,30.17,NNE,15,6.0,19.0,73,0.00,,,0.01,0.0,meteohub,2013-09-17 01:26:00,
2013-09-16 21:31:00,64.0,55.2,30.18,NW,319,11.0,15.0,73,0.00,,,0.01,0.0,meteohub,2013-09-17 01:31:00,
2013-09-16 21:36:00,64.0,55.2,30.18,North,11,5.0,14.0,73,0.00,,,0.01,0.0,meteohub,2013-09-17 01:36:00,
2013-09-16 21:42:00,63.9,55.4,30.18,NNE,23,6.0,14.0,74,0.00,,,0.01,0.0,meteohub,2013-09-17 01:42:00,
2013-09-16 21:47:00,63.7,55.2,30.18,North,0,6.0,15.0,74,0.00,,,0.01,0.0,meteohub,2013-09-17 01:47:00,
2013-09-16 21:52:00,63.5,55.4,30.19,North,351,4.0,15.0,75,0.00,,,0.01,0.0,meteohub,2013-09-17 01:52:00,
2013-09-16 21:57:00,63.1,54.7,30.19,North,5,6.0,15.0,74,0.00,,,0.01,0.0,meteohub,2013-09-17 01:57:00,
2013-09-16 22:02:00,62.8,54.3,30.19,NE,50,6.0,18.0,74,0.00,,,0.01,0.0,meteohub,2013-09-17 02:02:00,
2013-09-16 22:07:00,62.6,54.9,30.19,NE,40,5.0,18.0,76,0.00,,,0.01,0.0,meteohub,2013-09-17 02:07:00,
2013-09-16 22:12:00,62.4,54.3,30.20,NE,42,3.0,18.0,75,0.00,,,0.01,0.0,meteohub,2013-09-17 02:12:00,
2013-09-16 22:17:00,62.2,52.0,30.21,ENE,65,10.0,18.0,69,0.00,,,0.01,0.0,meteohub,2013-09-17 02:17:00,
2013-09-16 22:22:00,62.2,51.6,30.21,NNE,15,8.0,21.0,68,0.00,,,0.01,0.0,meteohub,2013-09-17 02:22:00,
2013-09-16 22:27:00,62.1,50.2,30.21,NNE,12,8.0,21.0,65,0.00,,,0.01,0.0,meteohub,2013-09-17 02:27:00,
2013-09-16 22:32:00,61.9,48.7,30.22,North,355,10.0,18.0,62,0.00,,,0.01,0.0,meteohub,2013-09-17 02:32:00,
2013-09-16 22:37:00,61.9,48.7,30.22,North,5,3.0,21.0,62,0.00,,,0.01,0.0,meteohub,2013-09-17 02:37:00,
2013-09-16 22:42:00,61.5,48.4,30.22,NE,43,12.0,21.0,62,0.00,,,0.01,0.0,meteohub,2013-09-17 02:42:00,
2013-09-16 22:47:00,61.3,48.6,30.22,NE,46,8.0,21.0,63,0.00,,,0.01,0.0,meteohub,2013-09-17 02:47:00,
2013-09-16 22:52:00,61.2,48.4,30.22,NE,47,7.0,22.0,63,0.00,,,0.01,0.0,meteohub,2013-09-17 02:52:00,
2013-09-16 22:57:00,61.0,47.5,30.22,NE,48,6.0,22.0,61,0.00,,,0.01,0.0,meteohub,2013-09-17 02:57:00,
2013-09-16 23:02:00,61.0,46.9,30.23,NNW,331,4.0,22.0,60,0.00,,,0.01,0.0,meteohub,2013-09-17 03:02:00,
2013-09-16 23:07:00,60.6,47.1,30.23,North,355,6.0,20.0,61,0.00,,,0.01,0.0,meteohub,2013-09-17 03:07:00,
2013-09-16 23:12:00,60.6,48.4,30.23,NE,40,5.0,20.0,64,0.00,,,0.01,0.0,meteohub,2013-09-17 03:12:00,
2013-09-16 23:17:00,60.3,48.0,30.23,NE,38,9.0,20.0,64,0.00,,,0.01,0.0,meteohub,2013-09-17 03:17:00,
2013-09-16 23:22:00,60.1,48.2,30.24,North,355,3.0,17.0,65,0.00,,,0.01,0.0,meteohub,2013-09-17 03:22:00,
2013-09-16 23:27:00,59.7,46.8,30.24,ENE,67,19.0,19.0,62,0.00,,,0.01,0.0,meteohub,2013-09-17 03:27:00,
2013-09-16 23:32:00,59.5,45.7,30.24,NW,323,8.0,23.0,60,0.00,,,0.01,0.0,meteohub,2013-09-17 03:32:00,
2013-09-16 23:37:00,59.4,45.9,30.24,NNW,344,10.0,23.0,61,0.00,,,0.01,0.0,meteohub,2013-09-17 03:37:00,
2013-09-16 23:42:00,59.2,46.2,30.24,NE,42,5.0,23.0,62,0.00,,,0.01,0.0,meteohub,2013-09-17 03:42:00,
2013-09-16 23:47:00,58.8,44.1,30.25,WNW,300,10.0,21.0,58,0.00,,,0.01,0.0,meteohub,2013-09-17 03:47:00,
2013-09-16 23:52:00,58.8,44.1,30.25,ENE,76,16.0,20.0,58,0.00,,,0.01,0.0,meteohub,2013-09-17 03:52:00,
2013-09-16 23:57:00,58.6,43.5,30.25,NNW,334,10.0,24.0,57,0.00,,,0.01,0.0,meteohub,2013-09-17 03:57:00,